createdAt,value
2022-08-03T00:01:01.395Z,6.38
2022-08-03T00:03:29.731Z,4.70
2022-08-03T00:06:04.411Z,5.05
2022-08-03T00:08:33.285Z,3.85
2022-08-03T00:11:08.990Z,4.32
2022-08-03T00:13:37.350Z,6.18
2022-08-03T00:16:05.953Z,6.60
2022-08-03T00:18:34.332Z,4.10
2022-08-03T00:21:03.044Z,5.25
2022-08-03T00:23:51.293Z,4.65
2022-08-03T00:26:46.350Z,6.75
2022-08-03T00:29:30.466Z,6.30
2022-08-03T00:32:01.367Z,4.03
2022-08-03T00:34:57.367Z,5.75
2022-08-03T00:37:40.887Z,4.50
2022-08-03T00:40:32.845Z,4.03
2022-08-03T00:43:03.080Z,6.75
2022-08-03T00:45:34.195Z,7.35
2022-08-03T00:48:03.218Z,4.47
2022-08-03T00:50:35.770Z,6.05
2022-08-03T00:53:06.513Z,7.65
2022-08-03T00:58:10.161Z,5.38
2022-08-03T01:00:43.833Z,7.30
2022-08-03T01:03:31.891Z,4.68
2022-08-03T01:06:14.628Z,6.00
2022-08-03T01:08:49.140Z,6.63
2022-08-03T01:12:00.682Z,5.25
2022-08-03T01:14:38.039Z,7.30
2022-08-03T01:17:35.593Z,7.10
2022-08-03T01:20:09.900Z,6.45
2022-08-03T01:23:01.796Z,5.63
2022-08-03T01:25:35.579Z,7.07
2022-08-03T01:28:31.419Z,9.10
2022-08-03T01:32:57.983Z,8.27
2022-08-03T01:35:08.641Z,5.95
2022-08-03T01:37:41.872Z,5.28
2022-08-03T01:40:26.396Z,6.53
2022-08-03T01:44:28.398Z,8.13
2022-08-03T01:46:05.924Z,5.30
2022-08-03T01:48:35.730Z,7.63
2022-08-03T01:51:04.846Z,7.07
2022-08-03T01:53:37.253Z,7.03
2022-08-03T01:56:09.674Z,7.55
2022-08-03T01:58:40.469Z,6.03
2022-08-03T02:03:59.599Z,8.47
2022-08-03T02:07:00.668Z,5.25
2022-08-03T02:10:04.953Z,5.60
2022-08-03T02:12:53.757Z,6.65
2022-08-03T02:15:27.269Z,5.15
2022-08-03T02:17:57.524Z,5.22
2022-08-03T02:20:50.823Z,7.05
2022-08-03T02:26:06.547Z,8.00
2022-08-03T02:28:38.581Z,7.82
2022-08-03T02:31:13.426Z,5.25
2022-08-03T02:33:45.254Z,4.50
2022-08-03T02:36:15.649Z,6.82
2022-08-03T02:38:45.515Z,6.72
2022-08-03T02:41:20.234Z,6.95
2022-08-03T02:44:17.655Z,5.38
2022-08-03T02:46:50.278Z,7.45
2022-08-03T02:49:50.962Z,7.60
2022-08-03T02:52:27.154Z,8.50
2022-08-03T02:55:06.765Z,7.80
2022-08-03T02:57:37.261Z,5.95
2022-08-03T03:00:07.261Z,5.97
2022-08-03T03:02:39.135Z,7.73
2022-08-03T03:05:52.241Z,6.75
2022-08-03T03:08:03.389Z,9.15
2022-08-03T03:10:46.810Z,7.70
2022-08-03T03:13:19.422Z,8.80
2022-08-03T03:15:48.795Z,6.40
2022-08-03T03:18:22.587Z,7.88
2022-08-03T03:20:54.633Z,7.53
2022-08-03T03:23:24.990Z,7.07
2022-08-03T03:25:57.206Z,8.88
2022-08-03T03:28:32.960Z,6.93
2022-08-03T03:31:03.078Z,7.90
2022-08-03T03:33:32.187Z,9.60
2022-08-03T03:36:19.901Z,7.78
2022-08-03T03:38:48.178Z,6.03
2022-08-03T03:41:18.265Z,6.38
2022-08-03T03:43:51.681Z,9.45
2022-08-03T03:46:24.457Z,6.80
2022-08-03T03:48:52.942Z,7.75
2022-08-03T03:51:21.726Z,9.02
2022-08-03T03:54:01.069Z,8.98
2022-08-03T03:56:33.844Z,6.97
2022-08-03T03:59:04.088Z,10.15
2022-08-03T04:01:33.471Z,6.40
2022-08-03T04:04:21.951Z,7.57
2022-08-03T04:07:08.872Z,7.82
2022-08-03T04:09:58.118Z,9.02
2022-08-03T04:12:35.577Z,8.00
2022-08-03T04:15:05.470Z,8.15
2022-08-03T04:17:37.294Z,8.57
2022-08-03T04:20:13.657Z,10.38
2022-08-03T04:22:43.259Z,8.98
2022-08-03T04:28:21.011Z,13.48
2022-08-03T04:30:54.894Z,8.10
2022-08-03T04:33:26.073Z,8.63
2022-08-03T04:36:20.999Z,7.43
2022-08-03T04:39:08.840Z,7.28
2022-08-03T04:42:02.195Z,6.78
2022-08-03T04:44:28.435Z,5.10
2022-08-03T04:46:59.377Z,4.72
2022-08-03T04:49:30.558Z,8.07
2022-08-03T04:51:59.596Z,4.80
2022-08-03T04:54:28.389Z,4.13
2022-08-03T04:56:56.995Z,3.90
2022-08-03T04:59:25.355Z,6.30
2022-08-03T05:01:54.135Z,9.07
2022-08-03T05:04:28.709Z,7.13
2022-08-03T05:06:57.590Z,8.68
2022-08-03T05:09:45.097Z,7.10
2022-08-03T05:12:19.472Z,10.40
2022-08-03T05:14:47.692Z,7.13
2022-08-03T05:17:16.494Z,7.55
2022-08-03T05:19:44.716Z,8.60
2022-08-03T05:22:12.988Z,7.40
2022-08-03T05:24:41.271Z,8.70
2022-08-03T05:27:10.113Z,8.02
2022-08-03T05:29:38.635Z,7.22
2022-08-03T05:32:10.200Z,8.90
2022-08-03T05:34:38.937Z,9.73
2022-08-03T05:37:08.342Z,8.15
2022-08-03T05:39:38.945Z,7.53
2022-08-03T05:42:09.645Z,8.25
2022-08-03T05:44:39.630Z,9.80
2022-08-03T05:47:07.887Z,9.43
2022-08-03T05:49:36.638Z,7.38
2022-08-03T05:52:13.796Z,7.55
2022-08-03T05:54:55.932Z,8.20
2022-08-03T05:57:27.640Z,8.80
2022-08-03T05:59:58.607Z,5.90
2022-08-03T06:02:30.002Z,7.40
2022-08-03T06:07:29.364Z,10.13
2022-08-03T06:10:35.775Z,7.82
2022-08-03T06:12:48.678Z,7.25
2022-08-03T06:15:17.848Z,8.48
2022-08-03T06:17:53.244Z,4.65
2022-08-03T06:20:27.287Z,8.98
2022-08-03T06:23:00.398Z,5.80
2022-08-03T06:25:30.148Z,9.77
2022-08-03T06:28:00.847Z,9.77
2022-08-03T06:30:29.505Z,8.40
2022-08-03T06:32:58.078Z,8.73
2022-08-03T06:35:28.772Z,9.55
2022-08-03T06:37:58.013Z,9.70
2022-08-03T06:40:35.532Z,9.00
2022-08-03T06:43:06.115Z,8.02
2022-08-03T06:45:40.238Z,8.73
2022-08-03T06:48:10.853Z,8.13
2022-08-03T06:50:42.615Z,8.40
2022-08-03T06:53:21.291Z,8.25
2022-08-03T06:55:54.924Z,9.27
2022-08-03T06:58:24.287Z,8.77
2022-08-03T07:00:52.585Z,7.50
2022-08-03T07:03:21.525Z,6.78
2022-08-03T07:05:51.023Z,5.97
2022-08-03T07:08:20.036Z,6.82
2022-08-03T07:11:02.873Z,8.02
2022-08-03T07:13:33.116Z,9.83
2022-08-03T07:16:01.695Z,6.60
2022-08-03T07:18:30.512Z,8.75
2022-08-03T07:21:00.814Z,9.73
2022-08-03T07:23:29.454Z,6.47
2022-08-03T07:25:57.854Z,7.07
2022-08-03T07:28:26.738Z,7.43
2022-08-03T07:30:54.952Z,7.35
2022-08-03T07:33:24.055Z,6.00
2022-08-03T07:35:52.262Z,8.23
2022-08-03T07:38:21.198Z,4.50
2022-08-03T07:40:50.133Z,6.25
2022-08-03T07:43:18.556Z,7.50
2022-08-03T07:45:46.768Z,7.50
2022-08-03T07:48:15.035Z,9.38
2022-08-03T07:50:43.302Z,6.55
2022-08-03T07:53:11.602Z,6.32
2022-08-03T07:55:43.000Z,7.50
2022-08-03T07:58:19.207Z,7.18
2022-08-03T08:00:51.901Z,7.85
2022-08-03T08:03:20.729Z,7.60
2022-08-03T08:05:49.525Z,8.35
2022-08-03T08:08:17.939Z,7.90
2022-08-03T08:10:58.534Z,8.27
2022-08-03T08:13:27.620Z,8.18
2022-08-03T08:15:55.814Z,6.93
2022-08-03T08:18:25.061Z,7.80
2022-08-03T08:20:53.556Z,7.40
2022-08-03T08:23:44.187Z,7.57
2022-08-03T08:26:13.912Z,6.80
2022-08-03T08:28:45.419Z,6.05
2022-08-03T08:31:13.640Z,6.95
2022-08-03T08:34:03.298Z,7.10
2022-08-03T08:36:30.569Z,5.70
2022-08-03T08:38:58.819Z,7.30
2022-08-03T08:41:32.164Z,6.10
2022-08-03T08:44:01.229Z,6.78
2022-08-03T08:46:33.968Z,4.15
2022-08-03T08:49:04.810Z,4.60
2022-08-03T08:51:50.563Z,4.63
2022-08-03T08:54:29.257Z,7.43
2022-08-03T08:57:03.161Z,5.22
2022-08-03T08:59:48.346Z,5.85
2022-08-03T09:02:18.123Z,4.68
2022-08-03T09:04:50.412Z,6.80
2022-08-03T09:07:20.368Z,11.85
2022-08-03T09:10:10.188Z,4.40
2022-08-03T09:15:26.501Z,5.23
2022-08-03T09:17:57.556Z,5.18
2022-08-03T09:20:28.002Z,4.30
2022-08-03T09:23:51.606Z,7.78
2022-08-03T09:26:02.575Z,5.80
2022-08-03T09:28:56.577Z,5.60
2022-08-03T09:32:00.364Z,7.18
2022-08-03T09:34:32.018Z,5.43
2022-08-03T09:37:00.338Z,5.55
2022-08-03T09:39:42.204Z,6.07
2022-08-03T09:42:23.563Z,6.38
2022-08-03T09:44:53.484Z,5.82
2022-08-03T09:47:37.383Z,7.10
2022-08-03T09:50:13.868Z,6.15
2022-08-03T09:52:49.792Z,7.35
2022-08-03T09:56:34.218Z,7.10
2022-08-03T09:58:13.595Z,4.40
2022-08-03T10:01:00.663Z,6.18
2022-08-03T10:03:31.966Z,5.78
2022-08-03T10:06:00.540Z,4.70
2022-08-03T10:08:29.443Z,4.72
2022-08-03T10:10:59.647Z,5.57
2022-08-03T10:13:29.014Z,6.55
2022-08-03T10:16:23.238Z,5.68
2022-08-03T10:18:46.011Z,6.00
2022-08-03T10:21:18.198Z,5.25
2022-08-03T10:23:48.050Z,5.15
2022-08-03T10:26:23.948Z,5.03
2022-08-03T10:28:57.317Z,4.32
2022-08-03T10:31:26.134Z,5.13
2022-08-03T10:33:58.604Z,4.82
2022-08-03T10:36:31.760Z,5.72
2022-08-03T10:39:01.974Z,3.90
2022-08-03T10:41:37.348Z,3.97
2022-08-03T10:44:12.079Z,4.05
2022-08-03T10:46:44.948Z,4.47
2022-08-03T10:49:25.523Z,4.00
2022-08-03T10:52:13.758Z,5.13
2022-08-03T10:55:12.401Z,5.27
2022-08-03T10:57:58.446Z,3.28
2022-08-03T11:00:31.450Z,5.88
2022-08-03T11:03:09.756Z,3.42
2022-08-03T11:05:53.187Z,3.33
2022-08-03T11:08:25.797Z,4.32
2022-08-03T11:10:57.076Z,5.80
2022-08-03T11:13:29.072Z,6.78
2022-08-03T11:16:02.357Z,4.00
2022-08-03T11:18:36.363Z,4.57
2022-08-03T11:21:05.006Z,4.47
2022-08-03T11:24:04.286Z,5.55
2022-08-03T11:26:35.401Z,5.33
2022-08-03T11:29:30.597Z,4.72
2022-08-03T11:31:58.885Z,5.50
2022-08-03T11:34:27.669Z,8.15
2022-08-03T11:37:32.865Z,6.40
2022-08-03T11:40:02.814Z,5.63
2022-08-03T11:42:37.532Z,4.22
2022-08-03T11:45:09.405Z,4.32
2022-08-03T11:47:51.022Z,4.15
2022-08-03T11:50:20.769Z,6.53
2022-08-03T11:52:50.386Z,7.43
2022-08-03T11:55:22.553Z,5.30
2022-08-03T11:59:10.743Z,5.57
2022-08-03T12:00:40.512Z,4.18
2022-08-03T12:03:12.771Z,5.63
2022-08-03T12:05:51.964Z,5.22
2022-08-03T12:08:34.614Z,4.07
2022-08-03T12:11:07.556Z,5.78
2022-08-03T12:14:27.421Z,5.70
2022-08-03T12:16:49.520Z,4.43
2022-08-03T12:19:18.103Z,4.40
2022-08-03T12:21:57.326Z,5.93
2022-08-03T12:24:29.577Z,6.32
2022-08-03T12:27:00.800Z,4.38
2022-08-03T12:32:18.316Z,4.85
2022-08-03T12:34:48.877Z,3.63
2022-08-03T12:37:23.200Z,6.60
2022-08-03T12:40:02.364Z,6.65
2022-08-03T12:42:36.153Z,5.13
2022-08-03T12:45:24.446Z,5.28
2022-08-03T12:48:02.918Z,4.47
2022-08-03T12:58:17.125Z,5.07
2022-08-03T14:25:49.955Z,3.83
2022-08-03T14:32:08.994Z,5.88
2022-08-03T14:34:20.871Z,4.20
2022-08-03T14:37:10.623Z,4.07
2022-08-03T14:42:30.330Z,3.70
2022-08-03T14:45:02.609Z,4.90
2022-08-03T14:47:34.341Z,4.88
2022-08-03T14:50:38.230Z,4.40
2022-08-03T14:53:09.248Z,5.55
2022-08-03T14:55:38.602Z,6.03
2022-08-03T14:58:20.702Z,5.15
2022-08-03T15:00:51.303Z,3.53
2022-08-03T15:03:25.403Z,4.25
2022-08-03T15:06:00.931Z,3.05
2022-08-03T15:08:29.794Z,3.95
2022-08-03T15:11:01.251Z,2.83
2022-08-03T15:13:33.131Z,2.10
2022-08-03T15:16:03.744Z,2.80
2022-08-03T15:18:31.986Z,2.90
2022-08-03T15:21:01.209Z,3.72
2022-08-03T15:23:29.627Z,2.60
2022-08-03T15:26:30.292Z,7.50
2022-08-03T15:28:58.298Z,5.72
2022-08-03T15:31:27.643Z,4.53
2022-08-03T15:33:56.045Z,4.15
2022-08-03T15:36:24.480Z,4.97
2022-08-03T15:38:53.952Z,3.08
2022-08-03T15:41:22.357Z,6.22
2022-08-03T15:43:53.772Z,5.53
2022-08-03T15:46:32.946Z,2.72
2022-08-03T15:49:01.343Z,4.28
2022-08-03T15:51:31.865Z,4.75
2022-08-03T15:54:05.813Z,6.25
2022-08-03T15:56:38.650Z,3.42
2022-08-03T15:59:12.324Z,3.85
2022-08-03T16:01:42.534Z,5.95
2022-08-03T16:11:39.794Z,3.78
2022-08-03T16:14:30.759Z,3.42
2022-08-03T16:17:10.182Z,2.00
2022-08-03T16:19:42.194Z,2.50
2022-08-03T16:25:13.865Z,2.17
2022-08-03T16:28:00.245Z,1.30
2022-08-03T16:30:39.558Z,1.88
2022-08-03T16:33:08.112Z,2.50
2022-08-03T16:35:36.575Z,3.60
2022-08-03T16:38:13.190Z,1.73
2022-08-03T16:40:54.301Z,1.88
2022-08-03T16:43:36.083Z,3.80
2022-08-03T16:46:10.653Z,3.20
2022-08-03T16:48:39.620Z,2.85
2022-08-03T16:51:07.960Z,2.38
2022-08-03T16:54:05.286Z,4.30
2022-08-03T16:56:27.592Z,1.75
2022-08-03T16:58:58.129Z,3.78
2022-08-03T17:01:37.639Z,2.58
2022-08-03T17:04:11.880Z,3.70
2022-08-03T17:06:45.172Z,1.60
2022-08-03T17:09:21.839Z,3.10
2022-08-03T17:11:52.105Z,2.97
2022-08-03T17:14:28.553Z,4.45
2022-08-03T17:17:04.124Z,2.65
2022-08-03T17:19:39.017Z,2.63
2022-08-03T17:22:12.078Z,6.40
2022-08-03T17:24:53.819Z,2.20
2022-08-03T17:28:51.234Z,1.85
2022-08-03T17:30:39.480Z,2.55
2022-08-03T17:33:20.243Z,2.60
2022-08-03T17:35:53.642Z,2.17
2022-08-03T17:38:31.856Z,1.83
2022-08-03T17:41:10.637Z,2.95
2022-08-03T17:44:12.761Z,3.35
2022-08-03T17:46:39.283Z,1.92
2022-08-03T17:49:24.954Z,2.58
2022-08-03T17:52:03.076Z,5.15
2022-08-03T17:55:57.042Z,3.50
2022-08-03T17:58:12.976Z,2.78
2022-08-03T18:01:59.545Z,2.97
2022-08-03T18:04:10.915Z,2.67
2022-08-03T18:06:56.238Z,3.17
2022-08-03T18:10:04.168Z,1.50
2022-08-03T18:12:41.341Z,1.90
2022-08-03T18:15:22.322Z,2.20
2022-08-03T18:17:55.479Z,2.05
2022-08-03T18:20:51.125Z,2.35
2022-08-03T18:23:45.669Z,1.75
2022-08-03T18:26:43.448Z,2.35
2022-08-03T18:32:16.931Z,4.53
2022-08-03T18:38:46.827Z,4.00
2022-08-03T18:41:46.968Z,1.88
2022-08-03T18:47:51.755Z,1.38
2022-08-03T18:54:02.364Z,2.80
2022-08-03T18:56:50.487Z,1.83
2022-08-03T19:02:51.629Z,3.97
2022-08-03T19:06:02.293Z,3.90
2022-08-03T19:09:44.887Z,2.78
2022-08-03T19:12:44.549Z,2.75
2022-08-03T19:15:36.018Z,2.78
2022-08-03T19:18:44.163Z,2.60
2022-08-03T19:21:17.576Z,2.83
2022-08-03T19:23:56.242Z,2.95
2022-08-03T19:26:51.292Z,2.90
2022-08-03T19:29:59.560Z,2.33
2022-08-03T19:32:32.172Z,3.30
2022-08-03T19:44:42.909Z,3.15
2022-08-03T19:47:44.772Z,3.00
2022-08-03T19:50:50.995Z,3.15
2022-08-03T19:54:16.718Z,1.95
2022-08-03T20:24:01.646Z,4.00
2022-08-03T20:27:22.436Z,4.93
2022-08-03T20:37:13.302Z,5.10
2022-08-03T20:46:29.640Z,5.22
2022-08-03T20:49:25.214Z,4.57
2022-08-03T20:55:20.162Z,4.45
2022-08-03T20:57:51.817Z,3.47
2022-08-03T21:00:21.962Z,4.43
2022-08-03T21:03:15.893Z,3.22
2022-08-03T21:06:16.330Z,3.45
2022-08-03T21:09:21.392Z,5.18
2022-08-03T21:12:18.005Z,6.90
2022-08-03T21:18:51.709Z,4.28
2022-08-03T21:22:27.898Z,5.35
2022-08-03T21:24:19.072Z,4.10
2022-08-03T21:26:59.436Z,3.42
2022-08-03T21:29:57.483Z,3.25
2022-08-03T21:32:45.004Z,3.50
2022-08-03T21:35:20.944Z,3.85
2022-08-03T21:38:29.657Z,5.40
2022-08-03T21:41:02.577Z,3.20
2022-08-03T21:47:19.293Z,3.85
2022-08-03T21:50:16.741Z,3.85
2022-08-03T21:59:20.036Z,4.13
2022-08-03T22:02:22.665Z,4.00
2022-08-03T22:05:08.298Z,6.25
2022-08-03T22:07:47.574Z,3.88
2022-08-03T22:10:18.338Z,4.97
2022-08-03T22:15:19.925Z,3.83
2022-08-03T22:18:01.359Z,4.93
2022-08-03T22:20:40.575Z,5.00
2022-08-03T22:23:19.574Z,3.38
2022-08-03T22:25:53.147Z,4.78
2022-08-03T22:28:28.560Z,4.90
2022-08-03T22:31:00.476Z,4.85
2022-08-03T22:33:51.130Z,4.75
2022-08-03T22:38:52.726Z,4.97
2022-08-03T22:41:23.478Z,5.57
2022-08-03T22:46:44.335Z,2.90
2022-08-03T22:49:15.576Z,4.30
2022-08-03T22:51:48.618Z,6.10
2022-08-03T22:54:17.937Z,5.00
2022-08-03T22:56:48.271Z,3.28
2022-08-03T22:59:41.042Z,4.97
2022-08-03T23:02:23.270Z,5.10
2022-08-03T23:06:02.023Z,6.82
2022-08-03T23:08:13.106Z,3.85
2022-08-03T23:10:53.378Z,3.65
2022-08-03T23:13:26.657Z,4.35
2022-08-03T23:16:09.690Z,4.93
2022-08-03T23:18:49.452Z,4.63
2022-08-03T23:22:00.313Z,5.60
2022-08-03T23:24:29.414Z,4.43
2022-08-03T23:27:03.759Z,5.18
2022-08-03T23:29:42.751Z,3.92
2022-08-03T23:32:16.665Z,6.65
2022-08-03T23:35:04.900Z,4.65
2022-08-03T23:38:04.471Z,6.75
2022-08-03T23:40:33.712Z,4.10
2022-08-03T23:46:56.542Z,5.63
2022-08-03T23:49:24.793Z,5.38
2022-08-03T23:52:03.395Z,5.80
2022-08-03T23:55:19.437Z,6.97
2022-08-03T23:58:20.653Z,5.05
